sensor_id;sensor_type;location;lat;lon;timestamp;pressure;altitude;pressure_sealevel;temperature;humidity
13241;BME280;6687;47.790;7.322;2023-04-25T05:24:47;98395.69;;;10.83;71.72
13241;BME280;6687;47.790;7.322;2023-04-25T05:27:16;98389.50;;;11.00;71.03
13241;BME280;6687;47.790;7.322;2023-04-25T05:29:43;98392.91;;;11.06;70.40
13241;BME280;6687;47.790;7.322;2023-04-25T05:32:09;98393.88;;;10.94;70.23
13241;BME280;6687;47.790;7.322;2023-04-25T05:34:36;98405.81;;;11.08;69.55
13241;BME280;6687;47.790;7.322;2023-04-25T05:37:03;98406.03;;;10.86;71.57
13241;BME280;6687;47.790;7.322;2023-04-25T05:39:30;98413.03;;;10.73;73.32
13241;BME280;6687;47.790;7.322;2023-04-25T05:41:58;98401.66;;;10.91;73.23
13241;BME280;6687;47.790;7.322;2023-04-25T05:44:24;98410.94;;;11.20;69.92
13241;BME280;6687;47.790;7.322;2023-04-25T05:46:51;98418.66;;;11.23;68.61
13241;BME280;6687;47.790;7.322;2023-04-25T05:49:18;98422.09;;;11.27;69.20
13241;BME280;6687;47.790;7.322;2023-04-25T05:51:45;98429.66;;;11.50;67.07
13241;BME280;6687;47.790;7.322;2023-04-25T05:54:12;98432.25;;;11.48;66.94
13241;BME280;6687;47.790;7.322;2023-04-25T05:56:38;98424.59;;;11.34;68.11
13241;BME280;6687;47.790;7.322;2023-04-25T05:59:06;98428.19;;;11.21;69.07
13241;BME280;6687;47.790;7.322;2023-04-25T06:01:33;98431.91;;;10.92;71.50
13241;BME280;6687;47.790;7.322;2023-04-25T06:04:00;98438.78;;;10.93;72.50
13241;BME280;6687;47.790;7.322;2023-04-25T06:06:27;98442.09;;;11.11;71.61
13241;BME280;6687;47.790;7.322;2023-04-25T06:08:53;98445.97;;;10.58;74.25
13241;BME280;6687;47.790;7.322;2023-04-25T06:11:20;98452.72;;;10.80;77.79
13241;BME280;6687;47.790;7.322;2023-04-25T06:13:47;98451.78;;;10.90;76.59
13241;BME280;6687;47.790;7.322;2023-04-25T06:16:15;98457.88;;;10.86;78.61
13241;BME280;6687;47.790;7.322;2023-04-25T06:18:42;98462.88;;;11.08;77.74
13241;BME280;6687;47.790;7.322;2023-04-25T06:21:08;98461.47;;;10.64;78.43
13241;BME280;6687;47.790;7.322;2023-04-25T06:23:35;98467.63;;;10.50;80.30
13241;BME280;6687;47.790;7.322;2023-04-25T06:26:02;98459.53;;;10.97;78.90
13241;BME280;6687;47.790;7.322;2023-04-25T06:28:29;98460.84;;;11.41;74.07
13241;BME280;6687;47.790;7.322;2023-04-25T06:30:55;98459.13;;;11.40;72.59
13241;BME280;6687;47.790;7.322;2023-04-25T06:33:23;98471.34;;;11.27;74.91
13241;BME280;6687;47.790;7.322;2023-04-25T06:35:50;98467.78;;;11.39;73.31
13241;BME280;6687;47.790;7.322;2023-04-25T06:38:17;98476.22;;;11.62;71.28
13241;BME280;6687;47.790;7.322;2023-04-25T06:40:43;98473.16;;;11.19;73.97
13241;BME280;6687;47.790;7.322;2023-04-25T06:43:10;98462.41;;;11.57;71.66
13241;BME280;6687;47.790;7.322;2023-04-25T06:45:37;98465.53;;;11.88;68.11
13241;BME280;6687;47.790;7.322;2023-04-25T06:48:04;98475.47;;;11.49;73.63
13241;BME280;6687;47.790;7.322;2023-04-25T06:50:33;98473.22;;;11.11;75.90
13241;BME280;6687;47.790;7.322;2023-04-25T06:52:59;98475.38;;;11.57;75.30
13241;BME280;6687;47.790;7.322;2023-04-25T06:55:27;98468.56;;;11.48;75.66
13241;BME280;6687;47.790;7.322;2023-04-25T06:57:53;98471.88;;;11.63;75.52
13241;BME280;6687;47.790;7.322;2023-04-25T07:00:21;98467.88;;;12.11;71.25
13241;BME280;6687;47.790;7.322;2023-04-25T07:02:47;98474.53;;;12.34;70.00
13241;BME280;6687;47.790;7.322;2023-04-25T07:05:14;98475.84;;;11.98;70.05
13241;BME280;6687;47.790;7.322;2023-04-25T07:07:42;98483.94;;;12.41;69.83
13241;BME280;6687;47.790;7.322;2023-04-25T07:10:09;98493.28;;;12.58;66.21
13241;BME280;6687;47.790;7.322;2023-04-25T07:12:36;98497.28;;;12.15;69.92
13241;BME280;6687;47.790;7.322;2023-04-25T07:15:03;98492.22;;;12.71;65.88
13241;BME280;6687;47.790;7.322;2023-04-25T07:17:32;98495.44;;;12.88;64.27
13241;BME280;6687;47.790;7.322;2023-04-25T07:19:59;98491.97;;;12.89;64.06
13241;BME280;6687;47.790;7.322;2023-04-25T07:22:26;98493.53;;;12.98;63.09
13241;BME280;6687;47.790;7.322;2023-04-25T07:24:54;98503.72;;;13.13;66.08
13241;BME280;6687;47.790;7.322;2023-04-25T07:27:21;98489.50;;;13.36;63.79
13241;BME280;6687;47.790;7.322;2023-04-25T07:29:47;98493.03;;;13.33;65.49
13241;BME280;6687;47.790;7.322;2023-04-25T07:32:14;98491.50;;;13.70;65.14
13241;BME280;6687;47.790;7.322;2023-04-25T07:34:41;98504.09;;;13.45;62.56
13241;BME280;6687;47.790;7.322;2023-04-25T07:37:08;98502.94;;;13.63;63.03
13241;BME280;6687;47.790;7.322;2023-04-25T07:39:34;98510.69;;;13.13;62.61
13241;BME280;6687;47.790;7.322;2023-04-25T07:42:04;98515.25;;;13.53;62.67
13241;BME280;6687;47.790;7.322;2023-04-25T07:44:33;98526.84;;;13.33;61.93
13241;BME280;6687;47.790;7.322;2023-04-25T07:47:04;98526.19;;;13.19;61.86
13241;BME280;6687;47.790;7.322;2023-04-25T07:49:32;98534.91;;;13.15;62.84
13241;BME280;6687;47.790;7.322;2023-04-25T07:51:59;98531.59;;;13.05;63.10
13241;BME280;6687;47.790;7.322;2023-04-25T07:54:26;98535.34;;;12.84;62.77
13241;BME280;6687;47.790;7.322;2023-04-25T07:56:52;98538.34;;;13.17;62.03
13241;BME280;6687;47.790;7.322;2023-04-25T07:59:21;98543.97;;;12.89;61.50
13241;BME280;6687;47.790;7.322;2023-04-25T08:01:48;98547.13;;;13.10;62.66
13241;BME280;6687;47.790;7.322;2023-04-25T08:04:15;98556.16;;;12.84;63.28
13241;BME280;6687;47.790;7.322;2023-04-25T08:06:42;98563.56;;;13.12;62.22
13241;BME280;6687;47.790;7.322;2023-04-25T08:09:09;98566.88;;;12.60;61.48
13241;BME280;6687;47.790;7.322;2023-04-25T08:11:36;98571.47;;;13.06;60.71
13241;BME280;6687;47.790;7.322;2023-04-25T08:14:03;98576.78;;;12.95;62.19
13241;BME280;6687;47.790;7.322;2023-04-25T08:16:31;98579.34;;;13.01;61.59
13241;BME280;6687;47.790;7.322;2023-04-25T08:18:59;98576.69;;;13.03;60.14
13241;BME280;6687;47.790;7.322;2023-04-25T08:21:26;98588.06;;;12.26;60.90
13241;BME280;6687;47.790;7.322;2023-04-25T08:23:53;98590.41;;;13.14;60.47
13241;BME280;6687;47.790;7.322;2023-04-25T08:26:19;98594.22;;;12.88;60.05
13241;BME280;6687;47.790;7.322;2023-04-25T08:28:46;98595.38;;;13.32;59.36
13241;BME280;6687;47.790;7.322;2023-04-25T08:31:13;98608.31;;;13.37;59.65
13241;BME280;6687;47.790;7.322;2023-04-25T08:33:41;98609.06;;;13.47;59.21
13241;BME280;6687;47.790;7.322;2023-04-25T08:36:09;98618.59;;;13.99;59.97
13241;BME280;6687;47.790;7.322;2023-04-25T08:38:35;98615.13;;;13.44;57.90
13241;BME280;6687;47.790;7.322;2023-04-25T08:41:03;98620.59;;;13.85;58.06
13241;BME280;6687;47.790;7.322;2023-04-25T08:43:30;98614.28;;;13.44;58.08
13241;BME280;6687;47.790;7.322;2023-04-25T08:45:59;98618.94;;;13.79;57.85
13241;BME280;6687;47.790;7.322;2023-04-25T08:48:27;98623.28;;;13.79;56.37
13241;BME280;6687;47.790;7.322;2023-04-25T08:50:56;98618.22;;;14.21;57.31
13241;BME280;6687;47.790;7.322;2023-04-25T08:53:27;98627.00;;;15.04;56.84
13241;BME280;6687;47.790;7.322;2023-04-25T08:55:54;98614.91;;;15.39;56.30
13241;BME280;6687;47.790;7.322;2023-04-25T08:58:21;98625.50;;;15.70;54.30
13241;BME280;6687;47.790;7.322;2023-04-25T09:00:50;98619.81;;;16.23;54.06
13241;BME280;6687;47.790;7.322;2023-04-25T09:03:17;98619.72;;;16.59;53.30
13241;BME280;6687;47.790;7.322;2023-04-25T09:05:44;98626.78;;;16.88;53.10
13241;BME280;6687;47.790;7.322;2023-04-25T09:08:12;98627.28;;;16.37;51.97
13241;BME280;6687;47.790;7.322;2023-04-25T09:10:40;98630.38;;;16.51;51.68
13241;BME280;6687;47.790;7.322;2023-04-25T09:13:07;98636.44;;;17.16;51.77
13241;BME280;6687;47.790;7.322;2023-04-25T09:15:47;98633.00;;;17.14;50.68
13241;BME280;6687;47.790;7.322;2023-04-25T09:18:22;98630.03;;;17.53;50.68
13241;BME280;6687;47.790;7.322;2023-04-25T09:20:48;98634.38;;;17.80;50.71
13241;BME280;6687;47.790;7.322;2023-04-25T09:23:18;98637.03;;;18.07;50.11
13241;BME280;6687;47.790;7.322;2023-04-25T09:25:47;98632.75;;;18.29;50.07
13241;BME280;6687;47.790;7.322;2023-04-25T09:28:14;98634.69;;;18.49;49.25
13241;BME280;6687;47.790;7.322;2023-04-25T09:30:41;98638.06;;;18.53;48.32
13241;BME280;6687;47.790;7.322;2023-04-25T09:33:08;98636.06;;;18.60;50.06
13241;BME280;6687;47.790;7.322;2023-04-25T09:35:35;98640.59;;;18.56;49.50
13241;BME280;6687;47.790;7.322;2023-04-25T09:38:07;98649.75;;;17.64;45.01
13241;BME280;6687;47.790;7.322;2023-04-25T09:40:39;98652.78;;;18.07;45.77
13241;BME280;6687;47.790;7.322;2023-04-25T09:43:09;98652.16;;;17.44;44.22
13241;BME280;6687;47.790;7.322;2023-04-25T09:45:41;98652.09;;;16.87;43.56
13241;BME280;6687;47.790;7.322;2023-04-25T09:48:11;98648.19;;;17.01;44.27
13241;BME280;6687;47.790;7.322;2023-04-25T09:50:38;98650.59;;;16.46;44.03
13241;BME280;6687;47.790;7.322;2023-04-25T09:53:05;98649.25;;;16.95;44.68
13241;BME280;6687;47.790;7.322;2023-04-25T09:55:34;98649.53;;;17.16;44.41
13241;BME280;6687;47.790;7.322;2023-04-25T09:58:04;98654.06;;;17.67;46.82
13241;BME280;6687;47.790;7.322;2023-04-25T10:00:32;98645.31;;;17.66;48.42
13241;BME280;6687;47.790;7.322;2023-04-25T10:03:00;98651.75;;;17.28;43.81
13241;BME280;6687;47.790;7.322;2023-04-25T10:05:30;98645.16;;;17.99;43.35
13241;BME280;6687;47.790;7.322;2023-04-25T10:07:59;98653.56;;;17.26;45.45
13241;BME280;6687;47.790;7.322;2023-04-25T10:10:29;98653.53;;;17.82;48.40
13241;BME280;6687;47.790;7.322;2023-04-25T10:13:03;98657.97;;;18.08;47.50
13241;BME280;6687;47.790;7.322;2023-04-25T10:15:33;98654.28;;;18.39;49.84
13241;BME280;6687;47.790;7.322;2023-04-25T10:18:01;98650.78;;;18.64;49.39
13241;BME280;6687;47.790;7.322;2023-04-25T10:20:29;98653.78;;;18.78;49.24
13241;BME280;6687;47.790;7.322;2023-04-25T10:22:59;98657.50;;;19.20;49.25
13241;BME280;6687;47.790;7.322;2023-04-25T10:25:30;98662.13;;;19.13;47.04
13241;BME280;6687;47.790;7.322;2023-04-25T10:27:59;98663.53;;;18.75;44.40
13241;BME280;6687;47.790;7.322;2023-04-25T10:30:29;98664.56;;;18.71;41.92
13241;BME280;6687;47.790;7.322;2023-04-25T10:32:56;98670.72;;;18.19;42.09
13241;BME280;6687;47.790;7.322;2023-04-25T10:35:25;98667.13;;;18.22;41.64
13241;BME280;6687;47.790;7.322;2023-04-25T10:38:09;98677.69;;;18.71;43.41
13241;BME280;6687;47.790;7.322;2023-04-25T10:40:38;98676.19;;;18.88;42.85
13241;BME280;6687;47.790;7.322;2023-04-25T10:43:36;98678.00;;;17.83;41.69
13241;BME280;6687;47.790;7.322;2023-04-25T10:46:14;98682.88;;;17.95;41.17
13241;BME280;6687;47.790;7.322;2023-04-25T10:48:49;98695.75;;;16.85;46.97
13241;BME280;6687;47.790;7.322;2023-04-25T10:51:18;98700.03;;;16.21;47.76
13241;BME280;6687;47.790;7.322;2023-04-25T10:53:45;98703.88;;;14.86;56.94
13241;BME280;6687;47.790;7.322;2023-04-25T10:56:17;98715.16;;;15.70;57.15
13241;BME280;6687;47.790;7.322;2023-04-25T10:58:45;98707.38;;;15.67;61.01
13241;BME280;6687;47.790;7.322;2023-04-25T11:01:14;98699.28;;;15.41;63.73
13241;BME280;6687;47.790;7.322;2023-04-25T11:03:43;98699.22;;;16.19;65.70
13241;BME280;6687;47.790;7.322;2023-04-25T11:06:20;98696.75;;;15.77;61.44
13241;BME280;6687;47.790;7.322;2023-04-25T11:08:49;98700.91;;;16.21;60.41
13241;BME280;6687;47.790;7.322;2023-04-25T11:11:17;98694.47;;;16.00;55.49
13241;BME280;6687;47.790;7.322;2023-04-25T11:13:46;98694.31;;;16.06;53.14
13241;BME280;6687;47.790;7.322;2023-04-25T11:16:15;98696.09;;;16.04;49.91
13241;BME280;6687;47.790;7.322;2023-04-25T11:18:42;98691.47;;;16.16;48.47
13241;BME280;6687;47.790;7.322;2023-04-25T11:21:09;98678.31;;;16.19;47.42
13241;BME280;6687;47.790;7.322;2023-04-25T11:23:36;98679.44;;;16.43;46.61
13241;BME280;6687;47.790;7.322;2023-04-25T11:26:03;98668.63;;;16.88;46.16
13241;BME280;6687;47.790;7.322;2023-04-25T11:28:30;98668.78;;;17.43;50.29
13241;BME280;6687;47.790;7.322;2023-04-25T11:30:56;98666.81;;;17.49;43.85
13241;BME280;6687;47.790;7.322;2023-04-25T11:33:25;98660.94;;;17.69;48.65
13241;BME280;6687;47.790;7.322;2023-04-25T11:35:54;98661.03;;;17.66;41.79
13241;BME280;6687;47.790;7.322;2023-04-25T11:38:22;98668.19;;;17.89;42.04
13241;BME280;6687;47.790;7.322;2023-04-25T11:40:50;98668.72;;;18.26;44.22
13241;BME280;6687;47.790;7.322;2023-04-25T11:43:18;98666.44;;;17.90;40.83
13241;BME280;6687;47.790;7.322;2023-04-25T11:45:47;98661.03;;;18.21;42.39
13241;BME280;6687;47.790;7.322;2023-04-25T11:48:14;98665.75;;;18.37;40.95
13241;BME280;6687;47.790;7.322;2023-04-25T11:50:42;98672.09;;;19.05;46.26
13241;BME280;6687;47.790;7.322;2023-04-25T11:53:09;98661.63;;;19.03;47.43
13241;BME280;6687;47.790;7.322;2023-04-25T11:55:36;98662.00;;;19.40;48.24
13241;BME280;6687;47.790;7.322;2023-04-25T11:58:04;98662.09;;;18.66;40.57
13241;BME280;6687;47.790;7.322;2023-04-25T12:00:31;98670.25;;;19.53;47.55
13241;BME280;6687;47.790;7.322;2023-04-25T12:02:58;98666.50;;;19.82;47.35
13241;BME280;6687;47.790;7.322;2023-04-25T12:05:28;98665.22;;;20.13;45.16
13241;BME280;6687;47.790;7.322;2023-04-25T12:07:57;98656.91;;;20.44;40.03
13241;BME280;6687;47.790;7.322;2023-04-25T12:10:24;98652.22;;;20.30;37.80
13241;BME280;6687;47.790;7.322;2023-04-25T12:12:52;98652.53;;;20.84;41.27
13241;BME280;6687;47.790;7.322;2023-04-25T12:15:24;98656.06;;;20.64;45.79
13241;BME280;6687;47.790;7.322;2023-04-25T12:17:53;98658.81;;;20.20;37.28
13241;BME280;6687;47.790;7.322;2023-04-25T12:20:21;98671.63;;;19.85;39.16
13241;BME280;6687;47.790;7.322;2023-04-25T12:22:51;98682.59;;;19.28;38.67
13241;BME280;6687;47.790;7.322;2023-04-25T12:25:37;98686.63;;;18.15;41.53
13241;BME280;6687;47.790;7.322;2023-04-25T12:28:12;98686.19;;;18.27;42.58
13241;BME280;6687;47.790;7.322;2023-04-25T12:30:59;98690.47;;;18.29;49.63
13241;BME280;6687;47.790;7.322;2023-04-25T12:33:27;98680.25;;;18.97;48.38
13241;BME280;6687;47.790;7.322;2023-04-25T12:35:54;98686.13;;;18.79;45.08
13241;BME280;6687;47.790;7.322;2023-04-25T12:38:22;98681.81;;;18.53;42.85
13241;BME280;6687;47.790;7.322;2023-04-25T12:40:50;98687.81;;;18.81;41.12
13241;BME280;6687;47.790;7.322;2023-04-25T12:43:17;98687.78;;;19.98;42.72
13241;BME280;6687;47.790;7.322;2023-04-25T12:45:44;98689.84;;;20.12;43.04
13241;BME280;6687;47.790;7.322;2023-04-25T12:48:11;98690.25;;;19.57;40.31
13241;BME280;6687;47.790;7.322;2023-04-25T12:50:37;98689.75;;;20.13;39.99
13241;BME280;6687;47.790;7.322;2023-04-25T12:53:04;98691.84;;;20.48;41.78
13241;BME280;6687;47.790;7.322;2023-04-25T12:55:31;98690.69;;;20.94;45.88
13241;BME280;6687;47.790;7.322;2023-04-25T12:57:59;98683.41;;;20.39;39.67
13241;BME280;6687;47.790;7.322;2023-04-25T13:00:26;98678.69;;;21.26;38.11
13241;BME280;6687;47.790;7.322;2023-04-25T13:02:52;98678.72;;;21.82;44.30
13241;BME280;6687;47.790;7.322;2023-04-25T13:05:19;98678.13;;;21.94;36.35
13241;BME280;6687;47.790;7.322;2023-04-25T13:07:46;98679.66;;;22.52;38.69
13241;BME280;6687;47.790;7.322;2023-04-25T13:10:13;98676.88;;;22.89;34.90
13241;BME280;6687;47.790;7.322;2023-04-25T13:12:39;98683.94;;;23.21;39.47
13241;BME280;6687;47.790;7.322;2023-04-25T13:15:09;98676.34;;;23.15;42.92
13241;BME280;6687;47.790;7.322;2023-04-25T13:17:36;98670.94;;;23.01;43.26
13241;BME280;6687;47.790;7.322;2023-04-25T13:20:04;98682.09;;;23.39;41.91
13241;BME280;6687;47.790;7.322;2023-04-25T13:22:31;98677.03;;;23.98;40.85
13241;BME280;6687;47.790;7.322;2023-04-25T13:24:58;98678.31;;;23.91;38.85
13241;BME280;6687;47.790;7.322;2023-04-25T13:27:24;98677.66;;;24.04;42.65
13241;BME280;6687;47.790;7.322;2023-04-25T13:29:51;98679.69;;;23.98;40.85
13241;BME280;6687;47.790;7.322;2023-04-25T13:32:19;98678.81;;;24.14;42.13
13241;BME280;6687;47.790;7.322;2023-04-25T13:34:46;98682.06;;;24.03;42.47
13241;BME280;6687;47.790;7.322;2023-04-25T13:37:13;98683.81;;;23.72;38.44
13241;BME280;6687;47.790;7.322;2023-04-25T13:39:39;98679.34;;;23.73;42.35
13241;BME280;6687;47.790;7.322;2023-04-25T13:42:06;98687.34;;;23.08;34.70
13241;BME280;6687;47.790;7.322;2023-04-25T13:44:33;98685.84;;;23.35;40.27
13241;BME280;6687;47.790;7.322;2023-04-25T13:46:59;98684.56;;;23.27;36.12
13241;BME280;6687;47.790;7.322;2023-04-25T13:49:28;98683.47;;;22.47;35.87
13241;BME280;6687;47.790;7.322;2023-04-25T13:51:55;98687.53;;;23.20;40.52
13241;BME280;6687;47.790;7.322;2023-04-25T13:54:21;98699.53;;;22.42;37.77
13241;BME280;6687;47.790;7.322;2023-04-25T13:56:49;98689.25;;;22.01;34.55
13241;BME280;6687;47.790;7.322;2023-04-25T13:59:17;98684.97;;;22.35;35.85
13241;BME280;6687;47.790;7.322;2023-04-25T14:01:43;98691.78;;;23.07;38.34
13241;BME280;6687;47.790;7.322;2023-04-25T14:04:10;98695.97;;;22.43;36.90
13241;BME280;6687;47.790;7.322;2023-04-25T14:06:38;98715.28;;;19.89;36.98
13241;BME280;6687;47.790;7.322;2023-04-25T14:09:05;98718.06;;;18.92;38.91
13241;BME280;6687;47.790;7.322;2023-04-25T14:11:32;98720.81;;;18.88;43.09
13241;BME280;6687;47.790;7.322;2023-04-25T14:13:59;98723.88;;;18.49;46.21
13241;BME280;6687;47.790;7.322;2023-04-25T14:16:25;98731.44;;;17.79;51.05
13241;BME280;6687;47.790;7.322;2023-04-25T14:18:52;98728.72;;;17.52;57.32
13241;BME280;6687;47.790;7.322;2023-04-25T14:21:19;98733.16;;;17.20;59.02
13241;BME280;6687;47.790;7.322;2023-04-25T14:23:48;98735.38;;;17.03;61.36
13241;BME280;6687;47.790;7.322;2023-04-25T14:26:14;98736.47;;;16.96;60.67
13241;BME280;6687;47.790;7.322;2023-04-25T14:28:41;98744.91;;;16.40;62.60
13241;BME280;6687;47.790;7.322;2023-04-25T14:31:08;98753.81;;;15.95;62.04
13241;BME280;6687;47.790;7.322;2023-04-25T14:33:35;98761.13;;;17.18;59.85
13241;BME280;6687;47.790;7.322;2023-04-25T14:36:05;98759.41;;;16.52;58.27
13241;BME280;6687;47.790;7.322;2023-04-25T14:38:32;98752.69;;;17.08;57.23
13241;BME280;6687;47.790;7.322;2023-04-25T14:41:00;98746.56;;;17.09;54.70
13241;BME280;6687;47.790;7.322;2023-04-25T14:43:26;98744.06;;;16.38;54.88
13241;BME280;6687;47.790;7.322;2023-04-25T14:45:53;98745.38;;;15.84;54.99
13241;BME280;6687;47.790;7.322;2023-04-25T14:48:20;98750.66;;;16.53;53.34
13241;BME280;6687;47.790;7.322;2023-04-25T14:50:47;98741.31;;;17.41;52.75
13241;BME280;6687;47.790;7.322;2023-04-25T14:53:14;98734.19;;;18.02;55.35
13241;BME280;6687;47.790;7.322;2023-04-25T14:55:40;98741.78;;;18.38;56.35
13241;BME280;6687;47.790;7.322;2023-04-25T14:58:09;98732.25;;;18.61;56.04
13241;BME280;6687;47.790;7.322;2023-04-25T15:00:35;98746.81;;;18.44;50.03
13241;BME280;6687;47.790;7.322;2023-04-25T15:03:02;98742.97;;;18.55;49.37
13241;BME280;6687;47.790;7.322;2023-04-25T15:05:29;98743.94;;;18.77;49.37
13241;BME280;6687;47.790;7.322;2023-04-25T15:07:56;98743.59;;;19.12;51.88
13241;BME280;6687;47.790;7.322;2023-04-25T15:10:23;98747.41;;;19.28;50.83
13241;BME280;6687;47.790;7.322;2023-04-25T15:12:49;98741.78;;;19.37;52.85
13241;BME280;6687;47.790;7.322;2023-04-25T15:15:20;98732.09;;;19.61;53.24
13241;BME280;6687;47.790;7.322;2023-04-25T15:17:47;98731.44;;;19.80;46.13
13241;BME280;6687;47.790;7.322;2023-04-25T15:20:14;98737.91;;;20.37;50.51
13241;BME280;6687;47.790;7.322;2023-04-25T15:22:43;98730.00;;;20.58;44.32
13241;BME280;6687;47.790;7.322;2023-04-25T15:25:11;98735.13;;;21.02;42.66
13241;BME280;6687;47.790;7.322;2023-04-25T15:27:39;98731.63;;;21.41;47.78
13241;BME280;6687;47.790;7.322;2023-04-25T15:30:09;98732.19;;;22.04;41.79
13241;BME280;6687;47.790;7.322;2023-04-25T15:32:39;98731.06;;;21.72;36.71
13241;BME280;6687;47.790;7.322;2023-04-25T15:35:07;98729.03;;;21.96;35.75
13241;BME280;6687;47.790;7.322;2023-04-25T15:37:34;98722.00;;;21.40;35.01
13241;BME280;6687;47.790;7.322;2023-04-25T15:40:03;98732.44;;;21.98;38.38
13241;BME280;6687;47.790;7.322;2023-04-25T15:42:34;98734.97;;;21.82;40.70
13241;BME280;6687;47.790;7.322;2023-04-25T15:45:01;98735.44;;;22.10;45.10
13241;BME280;6687;47.790;7.322;2023-04-25T15:47:27;98738.03;;;21.92;45.98
13241;BME280;6687;47.790;7.322;2023-04-25T15:49:55;98731.72;;;21.58;38.43
13241;BME280;6687;47.790;7.322;2023-04-25T15:52:22;98725.50;;;21.78;41.62
13241;BME280;6687;47.790;7.322;2023-04-25T15:54:49;98732.78;;;21.54;40.99
13241;BME280;6687;47.790;7.322;2023-04-25T15:57:16;98729.22;;;21.55;42.87
13241;BME280;6687;47.790;7.322;2023-04-25T15:59:42;98736.03;;;21.40;43.75
13241;BME280;6687;47.790;7.322;2023-04-25T16:02:11;98738.50;;;21.45;45.27
13241;BME280;6687;47.790;7.322;2023-04-25T16:04:38;98741.13;;;21.24;47.51
13241;BME280;6687;47.790;7.322;2023-04-25T16:07:07;98736.03;;;21.21;47.20
13241;BME280;6687;47.790;7.322;2023-04-25T16:09:34;98758.53;;;19.82;40.25
13241;BME280;6687;47.790;7.322;2023-04-25T16:12:03;98777.28;;;18.22;50.20
13241;BME280;6687;47.790;7.322;2023-04-25T16:14:29;98796.22;;;18.58;57.80
13241;BME280;6687;47.790;7.322;2023-04-25T16:16:56;98794.81;;;17.30;60.59
13241;BME280;6687;47.790;7.322;2023-04-25T16:19:23;98808.00;;;15.87;63.48
13241;BME280;6687;47.790;7.322;2023-04-25T16:21:50;98806.72;;;15.64;63.19
13241;BME280;6687;47.790;7.322;2023-04-25T16:24:18;98810.94;;;14.81;66.48
13241;BME280;6687;47.790;7.322;2023-04-25T16:26:45;98806.38;;;15.38;68.04
13241;BME280;6687;47.790;7.322;2023-04-25T16:29:12;98811.00;;;16.07;72.00
13241;BME280;6687;47.790;7.322;2023-04-25T16:31:41;98799.75;;;15.63;71.60
13241;BME280;6687;47.790;7.322;2023-04-25T16:34:08;98793.50;;;15.72;73.53
13241;BME280;6687;47.790;7.322;2023-04-25T16:36:35;98800.88;;;14.60;76.10
13241;BME280;6687;47.790;7.322;2023-04-25T16:39:02;98801.06;;;15.44;72.46
13241;BME280;6687;47.790;7.322;2023-04-25T16:41:30;98803.19;;;15.65;72.07
13241;BME280;6687;47.790;7.322;2023-04-25T16:43:57;98813.72;;;16.04;69.99
13241;BME280;6687;47.790;7.322;2023-04-25T16:46:23;98814.59;;;16.03;69.14
13241;BME280;6687;47.790;7.322;2023-04-25T16:48:50;98809.41;;;16.02;67.98
13241;BME280;6687;47.790;7.322;2023-04-25T16:51:17;98813.03;;;16.34;64.26
13241;BME280;6687;47.790;7.322;2023-04-25T16:53:44;98813.09;;;16.30;63.25
13241;BME280;6687;47.790;7.322;2023-04-25T16:56:11;98816.50;;;15.95;65.63
13241;BME280;6687;47.790;7.322;2023-04-25T16:58:39;98807.34;;;15.77;66.37
13241;BME280;6687;47.790;7.322;2023-04-25T17:01:05;98809.34;;;16.03;63.91
13241;BME280;6687;47.790;7.322;2023-04-25T17:03:32;98807.50;;;16.08;62.40
13241;BME280;6687;47.790;7.322;2023-04-25T17:05:59;98803.28;;;16.03;62.19
13241;BME280;6687;47.790;7.322;2023-04-25T17:08:26;98810.59;;;15.87;63.41
13241;BME280;6687;47.790;7.322;2023-04-25T17:10:53;98809.88;;;15.80;64.05
13241;BME280;6687;47.790;7.322;2023-04-25T17:13:20;98816.59;;;15.50;65.29
13241;BME280;6687;47.790;7.322;2023-04-25T17:15:48;98823.25;;;15.65;63.42
13241;BME280;6687;47.790;7.322;2023-04-25T17:18:15;98822.25;;;15.70;61.95
13241;BME280;6687;47.790;7.322;2023-04-25T17:20:42;98827.44;;;15.72;61.38
13241;BME280;6687;47.790;7.322;2023-04-25T17:23:08;98837.06;;;15.70;61.22
13241;BME280;6687;47.790;7.322;2023-04-25T17:25:35;98838.06;;;15.64;61.57
13241;BME280;6687;47.790;7.322;2023-04-25T17:28:02;98843.28;;;15.64;61.61
13241;BME280;6687;47.790;7.322;2023-04-25T17:30:29;98839.84;;;15.62;61.52
13241;BME280;6687;47.790;7.322;2023-04-25T17:32:57;98841.69;;;15.57;61.35
13241;BME280;6687;47.790;7.322;2023-04-25T17:35:24;98850.22;;;15.65;61.47
13241;BME280;6687;47.790;7.322;2023-04-25T17:37:52;98843.31;;;15.61;61.29
13241;BME280;6687;47.790;7.322;2023-04-25T17:40:19;98853.09;;;15.51;61.46
13241;BME280;6687;47.790;7.322;2023-04-25T17:42:45;98847.16;;;15.45;61.32
13241;BME280;6687;47.790;7.322;2023-04-25T17:45:12;98846.09;;;15.54;60.68
13241;BME280;6687;47.790;7.322;2023-04-25T17:47:39;98842.59;;;15.55;59.94
13241;BME280;6687;47.790;7.322;2023-04-25T17:50:08;98843.66;;;15.46;59.91
13241;BME280;6687;47.790;7.322;2023-04-25T17:52:37;98852.53;;;15.36;60.30
13241;BME280;6687;47.790;7.322;2023-04-25T17:55:04;98857.97;;;15.25;60.60
13241;BME280;6687;47.790;7.322;2023-04-25T17:57:31;98867.03;;;15.04;61.38
13241;BME280;6687;47.790;7.322;2023-04-25T17:59:58;98865.44;;;14.98;61.73
13241;BME280;6687;47.790;7.322;2023-04-25T18:02:25;98876.66;;;14.47;64.63
13241;BME280;6687;47.790;7.322;2023-04-25T18:04:52;98865.91;;;14.70;63.43
13241;BME280;6687;47.790;7.322;2023-04-25T18:07:20;98881.47;;;14.75;62.84
13241;BME280;6687;47.790;7.322;2023-04-25T18:09:46;98884.16;;;14.69;62.70
13241;BME280;6687;47.790;7.322;2023-04-25T18:12:13;98879.00;;;14.66;62.55
13241;BME280;6687;47.790;7.322;2023-04-25T18:14:42;98881.66;;;14.63;62.46
13241;BME280;6687;47.790;7.322;2023-04-25T18:17:10;98875.59;;;14.62;62.82
13241;BME280;6687;47.790;7.322;2023-04-25T18:19:36;98880.88;;;14.58;62.87
13241;BME280;6687;47.790;7.322;2023-04-25T18:22:03;98878.31;;;14.53;62.77
13241;BME280;6687;47.790;7.322;2023-04-25T18:24:32;98874.72;;;14.62;62.82
13241;BME280;6687;47.790;7.322;2023-04-25T18:26:59;98876.84;;;14.35;63.35
13241;BME280;6687;47.790;7.322;2023-04-25T18:29:30;98878.59;;;14.33;63.27
13241;BME280;6687;47.790;7.322;2023-04-25T18:31:56;98885.91;;;14.06;64.25
13241;BME280;6687;47.790;7.322;2023-04-25T18:34:23;98887.75;;;14.01;65.09
13241;BME280;6687;47.790;7.322;2023-04-25T18:36:51;98895.56;;;14.01;65.38